Austin, Utah
Current Conditions -  °F | °C
As of 2:52 AM on Saturday 29 Nov 2014 (Local Time) from KMLF Reporting Station
Clear Clear  
Wind Chill: 30°   Ceiling: Unl
Heat Index: 38°   Visibility: 10mi
Dew Point: 14°   Wind: 12mph
Humidity: 38%   Direction: 230°SW
Pressure: 29.9"   Gusts: NA
Location:  38.6125°N, 112.081°W
Report Text: KMLF 290952Z AUTO 23010KT 10SM CLR 03/M10 A2990 RMK AO2 SLP093 T00331100 TSNO
Loading
Personal Weather Stations






























Interactive Weather Map New forecast layout! Learn more

10-Day Weather Forecast

Advertisements
Track Severe Weather on mobile